Champion, NE (69023)

3:25 PM MDT on July 10, 2014 (GMT -0600)
Imperial Municipal (KIML) Elev 3274 ft | 40.51 °N, 101.62 °W | Change Station

Current weather conditions updated 32 minutes ago

Clear
Clear
93 °F
Feels Like 92 °F
N
15
Wind Variable Wind from South

Today is forecast to be nearly the same temperature as yesterday.

Today
High -- | Low -- °F
--% Chance of Precip.
Yesterday
High -- | Low -- °F
Precip. -- in
5:25 AM 8:18 PM
Waxing Gibbous, 96% visible
Pressure 29.79 in
Visibility 10.0 miles
Clouds Clear
Heat Index 92 °F
Dew Point 58 °F
Humidity 31%
Rainfall 0.00 in
Snow Depth Not available.
UV 10 out of 12
Pollen 4.80 out of 12
Air Quality Not available.
Flu Activity Sporadic
METAR KIML 102053Z AUTO 19013KT 10SM CLR 34/14 A2991 RMK AO2 SLP088 T03390144 56020

More Conditions Fewer Conditions

Pressure 29.79 in
Visibility 10.0 miles
Clouds Clear
Heat Index 92 °F
Dew Point 58 °F
Humidity 31%
Rainfall 0.00 in
Snow Depth Not available.
UV 10 out of 12
Pollen 4.80 out of 12
Air Quality Not available.
Flu Activity Sporadic
METAR KIML 102053Z AUTO 19013KT 10SM CLR 34/14 A2991 RMK AO2 SLP088 T03390144 56020

More Conditions Fewer Conditions

10-Day Weather Forecast

Almanac

Astronomy

Jul. 10, 2014 Rise Set
Actual Time 5:25 AM MDT 8:18 PM MDT
Civil Twilight 4:53 AM MDT 8:51 PM MDT
Nautical Twilight 4:12 AM MDT 9:32 PM MDT
Astronomical Twilight 3:24 AM MDT 10:19 PM MDT
Moon 6:33 PM MDT 3:39 AM MDT
Length of Visible Light 15h 57m
Length of Day
14h 52m
Tomorrow will be 1m 9s shorter.
Waxing Gibbous, 96% of the Moon is Illuminated
Today
Waxing Gibbous
Jul 12
Full
Jul 18
Last Quarter
Jul 26
New
Aug 3
First Quarter

Today's Extremes

State Highs State Lows

Community

WunderPhotos

Upload Photos

1,732,268 photos uploaded!

Nearby

Snow Depth

Station Depth Elevation
No new snow has been reported.

Earthquake Activity

City Distance Mag. Time & Date
No recent earthquake activity has been reported nearby.
Minimum magnitude displayed is 2.5.

Coastal Water Temperatures

Place Temperature
No Stations Reporting

Nearby Weather Stations

Station Location Temp. Heat Index Dew Point Humidity Wind Precip. Elev Updated Type
MesoWest JOHNSON FARM , Champion, NE 87 °F 88 °F 65 °F 47% SSE  at  9 mph 0.00 in / hr 3340 ft 2:00 PM MDT MADIS

Show More Stations Show Fewer Stations